sensor_id;sensor_type;location;lat;lon;timestamp;P1;durP1;ratioP1;P2;durP2;ratioP2
52031;SDS011;38044;45.148;39.604;2023-03-30T00:00:06;12.65;;;9.50;;
52031;SDS011;38044;45.148;39.604;2023-03-30T00:02:49;11.50;;;8.82;;
52031;SDS011;38044;45.148;39.604;2023-03-30T00:05:18;14.73;;;10.80;;
52031;SDS011;38044;45.148;39.604;2023-03-30T00:07:44;16.13;;;10.82;;
52031;SDS011;38044;45.148;39.604;2023-03-30T00:10:11;17.20;;;11.75;;
52031;SDS011;38044;45.148;39.604;2023-03-30T00:12:39;16.58;;;11.95;;
52031;SDS011;38044;45.148;39.604;2023-03-30T00:15:08;17.48;;;12.68;;
52031;SDS011;38044;45.148;39.604;2023-03-30T00:17:36;17.50;;;12.50;;
52031;SDS011;38044;45.148;39.604;2023-03-30T00:20:02;18.40;;;13.18;;
52031;SDS011;38044;45.148;39.604;2023-03-30T00:22:44;15.88;;;11.90;;
52031;SDS011;38044;45.148;39.604;2023-03-30T00:25:12;18.67;;;12.50;;
52031;SDS011;38044;45.148;39.604;2023-03-30T00:27:39;17.45;;;12.10;;
52031;SDS011;38044;45.148;39.604;2023-03-30T00:30:07;18.88;;;12.30;;
52031;SDS011;38044;45.148;39.604;2023-03-30T00:32:38;16.90;;;12.38;;
52031;SDS011;38044;45.148;39.604;2023-03-30T00:35:05;18.08;;;12.00;;
52031;SDS011;38044;45.148;39.604;2023-03-30T00:37:31;19.80;;;12.52;;
52031;SDS011;38044;45.148;39.604;2023-03-30T00:39:57;18.20;;;12.15;;
52031;SDS011;38044;45.148;39.604;2023-03-30T00:42:23;16.10;;;11.13;;
52031;SDS011;38044;45.148;39.604;2023-03-30T00:47:53;17.30;;;11.38;;
52031;SDS011;38044;45.148;39.604;2023-03-30T00:50:25;14.63;;;10.73;;
52031;SDS011;38044;45.148;39.604;2023-03-30T00:52:59;15.18;;;10.43;;
52031;SDS011;38044;45.148;39.604;2023-03-30T00:55:28;14.02;;;10.25;;
52031;SDS011;38044;45.148;39.604;2023-03-30T00:57:56;15.15;;;10.00;;
52031;SDS011;38044;45.148;39.604;2023-03-30T01:00:22;13.57;;;9.00;;
52031;SDS011;38044;45.148;39.604;2023-03-30T01:02:58;15.40;;;9.30;;
52031;SDS011;38044;45.148;39.604;2023-03-30T01:05:29;11.63;;;8.77;;
52031;SDS011;38044;45.148;39.604;2023-03-30T01:07:55;12.07;;;8.93;;
52031;SDS011;38044;45.148;39.604;2023-03-30T01:10:22;14.13;;;9.38;;
52031;SDS011;38044;45.148;39.604;2023-03-30T01:12:49;12.18;;;8.75;;
52031;SDS011;38044;45.148;39.604;2023-03-30T01:15:16;11.95;;;8.93;;
52031;SDS011;38044;45.148;39.604;2023-03-30T01:23:04;11.25;;;8.55;;
52031;SDS011;38044;45.148;39.604;2023-03-30T01:26:08;12.98;;;8.80;;
52031;SDS011;38044;45.148;39.604;2023-03-30T01:28:47;12.75;;;9.10;;
52031;SDS011;38044;45.148;39.604;2023-03-30T01:37:13;11.48;;;8.65;;
52031;SDS011;38044;45.148;39.604;2023-03-30T01:40:05;12.88;;;8.38;;
52031;SDS011;38044;45.148;39.604;2023-03-30T01:42:43;13.70;;;9.18;;
52031;SDS011;38044;45.148;39.604;2023-03-30T01:50:32;10.80;;;8.52;;
52031;SDS011;38044;45.148;39.604;2023-03-30T01:55:44;11.45;;;8.38;;
52031;SDS011;38044;45.148;39.604;2023-03-30T01:58:24;13.23;;;9.45;;
52031;SDS011;38044;45.148;39.604;2023-03-30T02:00:51;11.60;;;8.75;;
52031;SDS011;38044;45.148;39.604;2023-03-30T02:03:26;12.75;;;8.68;;
52031;SDS011;38044;45.148;39.604;2023-03-30T02:06:17;13.25;;;9.02;;
52031;SDS011;38044;45.148;39.604;2023-03-30T02:09:14;11.63;;;8.90;;
52031;SDS011;38044;45.148;39.604;2023-03-30T02:11:48;11.13;;;8.57;;
52031;SDS011;38044;45.148;39.604;2023-03-30T02:14:16;11.77;;;8.88;;
52031;SDS011;38044;45.148;39.604;2023-03-30T02:16:46;12.45;;;9.00;;
52031;SDS011;38044;45.148;39.604;2023-03-30T02:19:13;13.05;;;10.05;;
52031;SDS011;38044;45.148;39.604;2023-03-30T02:21:41;11.65;;;9.23;;
52031;SDS011;38044;45.148;39.604;2023-03-30T02:24:10;14.30;;;10.07;;
52031;SDS011;38044;45.148;39.604;2023-03-30T02:26:49;13.55;;;8.88;;
52031;SDS011;38044;45.148;39.604;2023-03-30T02:29:17;13.00;;;9.48;;
52031;SDS011;38044;45.148;39.604;2023-03-30T02:31:45;12.73;;;8.90;;
52031;SDS011;38044;45.148;39.604;2023-03-30T02:34:49;14.38;;;10.25;;
52031;SDS011;38044;45.148;39.604;2023-03-30T02:42:59;12.30;;;8.95;;
52031;SDS011;38044;45.148;39.604;2023-03-30T02:46:09;12.48;;;9.38;;
52031;SDS011;38044;45.148;39.604;2023-03-30T02:54:02;13.32;;;10.05;;
52031;SDS011;38044;45.148;39.604;2023-03-30T02:56:54;13.15;;;9.70;;
52031;SDS011;38044;45.148;39.604;2023-03-30T02:59:34;13.98;;;10.57;;
52031;SDS011;38044;45.148;39.604;2023-03-30T03:02:16;11.63;;;9.82;;
52031;SDS011;38044;45.148;39.604;2023-03-30T03:04:47;11.20;;;9.68;;
52031;SDS011;38044;45.148;39.604;2023-03-30T03:07:16;12.00;;;9.93;;
52031;SDS011;38044;45.148;39.604;2023-03-30T03:09:43;12.00;;;8.30;;
52031;SDS011;38044;45.148;39.604;2023-03-30T03:12:10;10.60;;;8.38;;
52031;SDS011;38044;45.148;39.604;2023-03-30T03:14:36;10.27;;;8.27;;
52031;SDS011;38044;45.148;39.604;2023-03-30T03:17:03;13.05;;;8.48;;
52031;SDS011;38044;45.148;39.604;2023-03-30T03:19:30;10.82;;;8.07;;
52031;SDS011;38044;45.148;39.604;2023-03-30T03:21:56;8.85;;;7.25;;
52031;SDS011;38044;45.148;39.604;2023-03-30T03:24:25;8.50;;;6.97;;
52031;SDS011;38044;45.148;39.604;2023-03-30T03:26:51;8.85;;;6.70;;
52031;SDS011;38044;45.148;39.604;2023-03-30T03:29:17;9.70;;;7.20;;
52031;SDS011;38044;45.148;39.604;2023-03-30T03:31:43;10.10;;;7.35;;
52031;SDS011;38044;45.148;39.604;2023-03-30T03:34:08;8.52;;;6.60;;
52031;SDS011;38044;45.148;39.604;2023-03-30T03:36:36;8.77;;;6.90;;
52031;SDS011;38044;45.148;39.604;2023-03-30T03:39:01;9.75;;;7.00;;
52031;SDS011;38044;45.148;39.604;2023-03-30T03:41:28;8.90;;;6.85;;
52031;SDS011;38044;45.148;39.604;2023-03-30T03:43:54;10.68;;;7.00;;
52031;SDS011;38044;45.148;39.604;2023-03-30T03:46:20;8.15;;;7.18;;
52031;SDS011;38044;45.148;39.604;2023-03-30T03:48:45;10.43;;;7.28;;
52031;SDS011;38044;45.148;39.604;2023-03-30T03:51:11;8.00;;;7.20;;
52031;SDS011;38044;45.148;39.604;2023-03-30T03:53:37;9.05;;;7.32;;
52031;SDS011;38044;45.148;39.604;2023-03-30T03:56:03;11.10;;;7.00;;
52031;SDS011;38044;45.148;39.604;2023-03-30T03:58:29;11.25;;;8.05;;
52031;SDS011;38044;45.148;39.604;2023-03-30T04:00:56;10.95;;;7.72;;
52031;SDS011;38044;45.148;39.604;2023-03-30T04:03:23;10.98;;;7.18;;
52031;SDS011;38044;45.148;39.604;2023-03-30T04:05:49;9.65;;;7.07;;
52031;SDS011;38044;45.148;39.604;2023-03-30T04:08:15;7.10;;;6.40;;
52031;SDS011;38044;45.148;39.604;2023-03-30T04:10:42;9.23;;;7.10;;
52031;SDS011;38044;45.148;39.604;2023-03-30T04:13:08;8.77;;;7.20;;
52031;SDS011;38044;45.148;39.604;2023-03-30T04:15:34;9.60;;;6.82;;
52031;SDS011;38044;45.148;39.604;2023-03-30T04:18:00;7.85;;;6.05;;
52031;SDS011;38044;45.148;39.604;2023-03-30T04:20:27;7.85;;;6.47;;
52031;SDS011;38044;45.148;39.604;2023-03-30T04:22:54;7.30;;;5.82;;
52031;SDS011;38044;45.148;39.604;2023-03-30T04:25:20;8.07;;;5.57;;
52031;SDS011;38044;45.148;39.604;2023-03-30T04:27:53;7.57;;;5.35;;
52031;SDS011;38044;45.148;39.604;2023-03-30T04:30:20;5.47;;;4.95;;
52031;SDS011;38044;45.148;39.604;2023-03-30T04:32:48;7.72;;;5.53;;
52031;SDS011;38044;45.148;39.604;2023-03-30T04:35:30;7.25;;;5.03;;
52031;SDS011;38044;45.148;39.604;2023-03-30T04:37:57;5.65;;;4.40;;
52031;SDS011;38044;45.148;39.604;2023-03-30T04:40:24;9.02;;;5.68;;
52031;SDS011;38044;45.148;39.604;2023-03-30T04:42:50;7.78;;;5.75;;
52031;SDS011;38044;45.148;39.604;2023-03-30T04:45:16;7.32;;;6.05;;
52031;SDS011;38044;45.148;39.604;2023-03-30T04:47:43;8.65;;;6.28;;
52031;SDS011;38044;45.148;39.604;2023-03-30T04:50:12;7.65;;;5.68;;
52031;SDS011;38044;45.148;39.604;2023-03-30T04:52:39;8.52;;;5.78;;
52031;SDS011;38044;45.148;39.604;2023-03-30T04:55:05;9.25;;;5.45;;
52031;SDS011;38044;45.148;39.604;2023-03-30T04:57:31;8.25;;;5.22;;
52031;SDS011;38044;45.148;39.604;2023-03-30T04:59:56;8.82;;;6.32;;
52031;SDS011;38044;45.148;39.604;2023-03-30T05:02:22;10.40;;;6.82;;
52031;SDS011;38044;45.148;39.604;2023-03-30T05:04:48;8.57;;;5.15;;
52031;SDS011;38044;45.148;39.604;2023-03-30T05:07:14;6.85;;;5.25;;
52031;SDS011;38044;45.148;39.604;2023-03-30T05:09:40;5.22;;;4.72;;
52031;SDS011;38044;45.148;39.604;2023-03-30T05:12:06;6.60;;;4.18;;
52031;SDS011;38044;45.148;39.604;2023-03-30T05:14:32;5.35;;;4.10;;
52031;SDS011;38044;45.148;39.604;2023-03-30T05:16:58;5.65;;;4.20;;
52031;SDS011;38044;45.148;39.604;2023-03-30T05:19:23;7.53;;;3.58;;
52031;SDS011;38044;45.148;39.604;2023-03-30T05:21:49;4.80;;;3.03;;
52031;SDS011;38044;45.148;39.604;2023-03-30T05:24:15;4.82;;;3.10;;
52031;SDS011;38044;45.148;39.604;2023-03-30T05:26:41;4.68;;;3.33;;
52031;SDS011;38044;45.148;39.604;2023-03-30T05:29:07;4.05;;;2.67;;
52031;SDS011;38044;45.148;39.604;2023-03-30T05:31:34;4.85;;;2.97;;
52031;SDS011;38044;45.148;39.604;2023-03-30T05:34:00;3.95;;;3.13;;
52031;SDS011;38044;45.148;39.604;2023-03-30T05:36:25;6.70;;;3.90;;
52031;SDS011;38044;45.148;39.604;2023-03-30T05:38:52;4.78;;;3.38;;
52031;SDS011;38044;45.148;39.604;2023-03-30T05:41:18;3.90;;;2.63;;
52031;SDS011;38044;45.148;39.604;2023-03-30T05:43:44;3.20;;;2.25;;
52031;SDS011;38044;45.148;39.604;2023-03-30T05:46:09;3.72;;;2.83;;
52031;SDS011;38044;45.148;39.604;2023-03-30T05:48:35;3.45;;;2.80;;
52031;SDS011;38044;45.148;39.604;2023-03-30T05:51:01;3.95;;;2.33;;
52031;SDS011;38044;45.148;39.604;2023-03-30T05:53:27;2.97;;;2.63;;
52031;SDS011;38044;45.148;39.604;2023-03-30T05:55:53;3.83;;;2.30;;
52031;SDS011;38044;45.148;39.604;2023-03-30T05:58:18;1.70;;;1.60;;
52031;SDS011;38044;45.148;39.604;2023-03-30T06:00:45;4.18;;;2.30;;
52031;SDS011;38044;45.148;39.604;2023-03-30T06:03:12;3.22;;;2.10;;
52031;SDS011;38044;45.148;39.604;2023-03-30T06:05:38;2.00;;;1.80;;
52031;SDS011;38044;45.148;39.604;2023-03-30T06:08:06;3.15;;;1.83;;
52031;SDS011;38044;45.148;39.604;2023-03-30T06:10:32;3.97;;;2.15;;
52031;SDS011;38044;45.148;39.604;2023-03-30T06:12:59;2.78;;;2.17;;
52031;SDS011;38044;45.148;39.604;2023-03-30T06:15:25;3.50;;;1.98;;
52031;SDS011;38044;45.148;39.604;2023-03-30T06:17:51;2.67;;;2.00;;
52031;SDS011;38044;45.148;39.604;2023-03-30T06:20:18;3.38;;;2.38;;
52031;SDS011;38044;45.148;39.604;2023-03-30T06:22:48;4.25;;;2.20;;
52031;SDS011;38044;45.148;39.604;2023-03-30T06:25:14;3.08;;;2.15;;
52031;SDS011;38044;45.148;39.604;2023-03-30T06:27:40;4.63;;;1.90;;
52031;SDS011;38044;45.148;39.604;2023-03-30T06:30:07;2.63;;;1.83;;
52031;SDS011;38044;45.148;39.604;2023-03-30T06:32:36;3.80;;;2.22;;
52031;SDS011;38044;45.148;39.604;2023-03-30T06:35:02;4.57;;;2.22;;
52031;SDS011;38044;45.148;39.604;2023-03-30T06:37:30;3.10;;;2.03;;
52031;SDS011;38044;45.148;39.604;2023-03-30T06:39:56;3.65;;;2.00;;
52031;SDS011;38044;45.148;39.604;2023-03-30T06:42:22;4.25;;;1.92;;
52031;SDS011;38044;45.148;39.604;2023-03-30T06:44:51;3.60;;;2.30;;
52031;SDS011;38044;45.148;39.604;2023-03-30T06:47:17;2.60;;;2.00;;
52031;SDS011;38044;45.148;39.604;2023-03-30T06:49:44;3.15;;;1.98;;
52031;SDS011;38044;45.148;39.604;2023-03-30T06:52:10;3.38;;;1.70;;
52031;SDS011;38044;45.148;39.604;2023-03-30T06:54:37;2.55;;;1.70;;
52031;SDS011;38044;45.148;39.604;2023-03-30T06:57:03;3.13;;;1.70;;
52031;SDS011;38044;45.148;39.604;2023-03-30T06:59:29;3.22;;;1.88;;
52031;SDS011;38044;45.148;39.604;2023-03-30T07:01:57;2.75;;;2.00;;
52031;SDS011;38044;45.148;39.604;2023-03-30T07:04:23;4.60;;;2.40;;
52031;SDS011;38044;45.148;39.604;2023-03-30T07:06:49;2.95;;;2.10;;
52031;SDS011;38044;45.148;39.604;2023-03-30T07:09:16;4.50;;;2.10;;
52031;SDS011;38044;45.148;39.604;2023-03-30T07:11:42;3.88;;;1.73;;
52031;SDS011;38044;45.148;39.604;2023-03-30T07:14:08;3.63;;;2.00;;
52031;SDS011;38044;45.148;39.604;2023-03-30T07:16:36;2.83;;;2.03;;
52031;SDS011;38044;45.148;39.604;2023-03-30T07:19:02;3.85;;;1.85;;
52031;SDS011;38044;45.148;39.604;2023-03-30T07:21:29;4.28;;;2.22;;
52031;SDS011;38044;45.148;39.604;2023-03-30T07:23:56;9.00;;;2.13;;
52031;SDS011;38044;45.148;39.604;2023-03-30T07:26:26;2.58;;;1.98;;
52031;SDS011;38044;45.148;39.604;2023-03-30T07:28:53;2.28;;;1.73;;
52031;SDS011;38044;45.148;39.604;2023-03-30T07:31:20;3.35;;;1.77;;
52031;SDS011;38044;45.148;39.604;2023-03-30T07:33:47;2.70;;;1.52;;
52031;SDS011;38044;45.148;39.604;2023-03-30T07:36:13;3.33;;;1.80;;
52031;SDS011;38044;45.148;39.604;2023-03-30T07:38:39;2.08;;;1.67;;
52031;SDS011;38044;45.148;39.604;2023-03-30T07:41:08;4.13;;;1.90;;
52031;SDS011;38044;45.148;39.604;2023-03-30T07:43:35;3.67;;;1.73;;
52031;SDS011;38044;45.148;39.604;2023-03-30T07:46:01;2.35;;;1.65;;
52031;SDS011;38044;45.148;39.604;2023-03-30T07:48:28;4.20;;;1.50;;
52031;SDS011;38044;45.148;39.604;2023-03-30T07:51:01;3.03;;;1.80;;
52031;SDS011;38044;45.148;39.604;2023-03-30T07:53:32;3.17;;;1.60;;
52031;SDS011;38044;45.148;39.604;2023-03-30T07:55:57;2.00;;;1.70;;
52031;SDS011;38044;45.148;39.604;2023-03-30T07:58:24;2.58;;;1.33;;
52031;SDS011;38044;45.148;39.604;2023-03-30T08:00:51;2.95;;;1.80;;
52031;SDS011;38044;45.148;39.604;2023-03-30T08:03:18;2.90;;;1.65;;
52031;SDS011;38044;45.148;39.604;2023-03-30T08:05:56;4.15;;;1.40;;
52031;SDS011;38044;45.148;39.604;2023-03-30T08:08:27;4.53;;;1.77;;
52031;SDS011;38044;45.148;39.604;2023-03-30T08:10:53;2.35;;;1.63;;
52031;SDS011;38044;45.148;39.604;2023-03-30T08:13:20;2.70;;;1.40;;
52031;SDS011;38044;45.148;39.604;2023-03-30T08:15:46;3.05;;;2.00;;
52031;SDS011;38044;45.148;39.604;2023-03-30T08:18:12;5.18;;;2.03;;
52031;SDS011;38044;45.148;39.604;2023-03-30T08:20:40;1.88;;;1.35;;
52031;SDS011;38044;45.148;39.604;2023-03-30T08:23:10;2.45;;;1.80;;
52031;SDS011;38044;45.148;39.604;2023-03-30T08:25:36;2.03;;;1.55;;
52031;SDS011;38044;45.148;39.604;2023-03-30T08:28:02;4.72;;;2.00;;
52031;SDS011;38044;45.148;39.604;2023-03-30T08:30:30;2.22;;;1.35;;
52031;SDS011;38044;45.148;39.604;2023-03-30T08:32:56;1.55;;;1.23;;
52031;SDS011;38044;45.148;39.604;2023-03-30T08:35:23;2.70;;;1.40;;
52031;SDS011;38044;45.148;39.604;2023-03-30T08:37:49;3.33;;;1.40;;
52031;SDS011;38044;45.148;39.604;2023-03-30T08:40:15;1.90;;;1.42;;
52031;SDS011;38044;45.148;39.604;2023-03-30T08:42:53;1.95;;;1.30;;
52031;SDS011;38044;45.148;39.604;2023-03-30T08:45:40;3.42;;;1.40;;
52031;SDS011;38044;45.148;39.604;2023-03-30T08:48:11;5.93;;;2.13;;
52031;SDS011;38044;45.148;39.604;2023-03-30T08:50:42;2.25;;;1.60;;
52031;SDS011;38044;45.148;39.604;2023-03-30T08:53:12;2.80;;;1.50;;
52031;SDS011;38044;45.148;39.604;2023-03-30T08:55:42;1.50;;;1.30;;
52031;SDS011;38044;45.148;39.604;2023-03-30T09:01:19;2.40;;;1.50;;
52031;SDS011;38044;45.148;39.604;2023-03-30T09:09:12;3.03;;;1.58;;
52031;SDS011;38044;45.148;39.604;2023-03-30T09:11:41;4.05;;;1.83;;
52031;SDS011;38044;45.148;39.604;2023-03-30T09:14:11;3.35;;;1.45;;
52031;SDS011;38044;45.148;39.604;2023-03-30T09:16:50;2.88;;;1.52;;
52031;SDS011;38044;45.148;39.604;2023-03-30T09:19:26;2.03;;;1.50;;
52031;SDS011;38044;45.148;39.604;2023-03-30T09:21:59;6.18;;;1.83;;
52031;SDS011;38044;45.148;39.604;2023-03-30T09:24:30;3.70;;;1.50;;
52031;SDS011;38044;45.148;39.604;2023-03-30T09:29:42;4.45;;;2.05;;
52031;SDS011;38044;45.148;39.604;2023-03-30T09:32:13;3.35;;;1.60;;
52031;SDS011;38044;45.148;39.604;2023-03-30T09:34:57;4.75;;;1.65;;
52031;SDS011;38044;45.148;39.604;2023-03-30T09:37:27;3.42;;;1.80;;
52031;SDS011;38044;45.148;39.604;2023-03-30T09:39:53;2.95;;;1.80;;
52031;SDS011;38044;45.148;39.604;2023-03-30T09:45:33;2.88;;;1.70;;
52031;SDS011;38044;45.148;39.604;2023-03-30T09:48:03;2.70;;;1.90;;
52031;SDS011;38044;45.148;39.604;2023-03-30T09:50:42;2.95;;;1.58;;
52031;SDS011;38044;45.148;39.604;2023-03-30T09:56:06;3.70;;;1.80;;
52031;SDS011;38044;45.148;39.604;2023-03-30T09:58:36;3.40;;;1.83;;
52031;SDS011;38044;45.148;39.604;2023-03-30T10:03:29;4.43;;;1.80;;
52031;SDS011;38044;45.148;39.604;2023-03-30T10:06:06;3.35;;;1.65;;
52031;SDS011;38044;45.148;39.604;2023-03-30T10:08:52;2.25;;;1.88;;
52031;SDS011;38044;45.148;39.604;2023-03-30T10:11:39;4.05;;;1.58;;
52031;SDS011;38044;45.148;39.604;2023-03-30T10:16:56;2.92;;;1.80;;
52031;SDS011;38044;45.148;39.604;2023-03-30T10:19:23;2.88;;;1.67;;
52031;SDS011;38044;45.148;39.604;2023-03-30T10:21:54;2.30;;;1.58;;
52031;SDS011;38044;45.148;39.604;2023-03-30T10:24:22;3.42;;;1.80;;
52031;SDS011;38044;45.148;39.604;2023-03-30T10:26:51;2.88;;;1.60;;
52031;SDS011;38044;45.148;39.604;2023-03-30T10:29:22;2.22;;;1.60;;
52031;SDS011;38044;45.148;39.604;2023-03-30T10:31:57;2.72;;;1.80;;
52031;SDS011;38044;45.148;39.604;2023-03-30T10:36:57;2.67;;;1.85;;
52031;SDS011;38044;45.148;39.604;2023-03-30T10:39:31;2.65;;;1.73;;
52031;SDS011;38044;45.148;39.604;2023-03-30T10:41:59;3.33;;;1.65;;
52031;SDS011;38044;45.148;39.604;2023-03-30T10:44:35;3.17;;;1.85;;
52031;SDS011;38044;45.148;39.604;2023-03-30T10:47:26;3.40;;;1.50;;
52031;SDS011;38044;45.148;39.604;2023-03-30T10:57:51;3.80;;;1.73;;
52031;SDS011;38044;45.148;39.604;2023-03-30T11:00:33;3.35;;;1.88;;
52031;SDS011;38044;45.148;39.604;2023-03-30T11:03:21;2.97;;;2.10;;
52031;SDS011;38044;45.148;39.604;2023-03-30T11:05:51;3.25;;;1.90;;
52031;SDS011;38044;45.148;39.604;2023-03-30T11:08:22;3.33;;;1.85;;
52031;SDS011;38044;45.148;39.604;2023-03-30T11:10:54;2.33;;;1.95;;
52031;SDS011;38044;45.148;39.604;2023-03-30T11:13:23;3.03;;;1.77;;
52031;SDS011;38044;45.148;39.604;2023-03-30T11:15:56;2.88;;;1.73;;
52031;SDS011;38044;45.148;39.604;2023-03-30T11:18:40;2.38;;;1.80;;
52031;SDS011;38044;45.148;39.604;2023-03-30T11:24:18;4.38;;;2.10;;
52031;SDS011;38044;45.148;39.604;2023-03-30T11:26:47;2.33;;;1.60;;
52031;SDS011;38044;45.148;39.604;2023-03-30T11:31:53;3.05;;;1.98;;
52031;SDS011;38044;45.148;39.604;2023-03-30T11:34:23;3.08;;;1.75;;
52031;SDS011;38044;45.148;39.604;2023-03-30T11:39:42;2.08;;;1.45;;
52031;SDS011;38044;45.148;39.604;2023-03-30T11:42:19;2.55;;;1.60;;
52031;SDS011;38044;45.148;39.604;2023-03-30T11:44:54;2.00;;;1.55;;
52031;SDS011;38044;45.148;39.604;2023-03-30T11:47:27;3.97;;;1.88;;
52031;SDS011;38044;45.148;39.604;2023-03-30T11:50:00;3.25;;;1.95;;
52031;SDS011;38044;45.148;39.604;2023-03-30T11:52:36;2.70;;;1.98;;
52031;SDS011;38044;45.148;39.604;2023-03-30T11:56:04;3.22;;;1.80;;
52031;SDS011;38044;45.148;39.604;2023-03-30T11:58:34;3.08;;;1.80;;
52031;SDS011;38044;45.148;39.604;2023-03-30T12:03:40;6.32;;;1.83;;
52031;SDS011;38044;45.148;39.604;2023-03-30T12:11:26;2.42;;;1.70;;
52031;SDS011;38044;45.148;39.604;2023-03-30T12:14:02;2.85;;;1.88;;
52031;SDS011;38044;45.148;39.604;2023-03-30T12:16:43;2.20;;;1.90;;
52031;SDS011;38044;45.148;39.604;2023-03-30T12:19:18;3.28;;;1.80;;
52031;SDS011;38044;45.148;39.604;2023-03-30T12:24:42;2.67;;;1.83;;
52031;SDS011;38044;45.148;39.604;2023-03-30T12:27:20;3.33;;;2.28;;
52031;SDS011;38044;45.148;39.604;2023-03-30T12:29:47;4.47;;;2.28;;
52031;SDS011;38044;45.148;39.604;2023-03-30T12:32:26;4.85;;;2.00;;
52031;SDS011;38044;45.148;39.604;2023-03-30T12:34:52;3.78;;;2.10;;
52031;SDS011;38044;45.148;39.604;2023-03-30T12:37:32;2.47;;;2.13;;
52031;SDS011;38044;45.148;39.604;2023-03-30T12:40:00;3.88;;;2.22;;
52031;SDS011;38044;45.148;39.604;2023-03-30T12:42:38;3.90;;;2.13;;
52031;SDS011;38044;45.148;39.604;2023-03-30T12:55:45;2.50;;;1.80;;
52031;SDS011;38044;45.148;39.604;2023-03-30T13:01:12;3.65;;;2.00;;
52031;SDS011;38044;45.148;39.604;2023-03-30T13:03:58;3.30;;;2.13;;
52031;SDS011;38044;45.148;39.604;2023-03-30T13:12:06;2.80;;;1.60;;
52031;SDS011;38044;45.148;39.604;2023-03-30T13:14:56;2.50;;;1.52;;
52031;SDS011;38044;45.148;39.604;2023-03-30T13:18:01;4.95;;;1.77;;
52031;SDS011;38044;45.148;39.604;2023-03-30T13:20:31;4.18;;;1.90;;
52031;SDS011;38044;45.148;39.604;2023-03-30T13:25:45;3.80;;;1.80;;
52031;SDS011;38044;45.148;39.604;2023-03-30T13:34:15;2.90;;;1.67;;
52031;SDS011;38044;45.148;39.604;2023-03-30T13:39:33;3.65;;;2.10;;
52031;SDS011;38044;45.148;39.604;2023-03-30T13:42:21;4.63;;;2.00;;
52031;SDS011;38044;45.148;39.604;2023-03-30T13:45:15;2.35;;;1.80;;
52031;SDS011;38044;45.148;39.604;2023-03-30T13:50:44;3.45;;;1.75;;
52031;SDS011;38044;45.148;39.604;2023-03-30T13:53:13;2.55;;;1.60;;
52031;SDS011;38044;45.148;39.604;2023-03-30T13:55:42;3.15;;;1.80;;
52031;SDS011;38044;45.148;39.604;2023-03-30T13:58:12;3.25;;;1.73;;
52031;SDS011;38044;45.148;39.604;2023-03-30T14:00:49;2.35;;;1.70;;
52031;SDS011;38044;45.148;39.604;2023-03-30T14:03:37;5.15;;;1.80;;
52031;SDS011;38044;45.148;39.604;2023-03-30T14:06:06;5.78;;;2.15;;
52031;SDS011;38044;45.148;39.604;2023-03-30T14:08:41;4.53;;;2.28;;
52031;SDS011;38044;45.148;39.604;2023-03-30T14:11:12;4.80;;;2.60;;
52031;SDS011;38044;45.148;39.604;2023-03-30T14:13:42;4.50;;;2.65;;
52031;SDS011;38044;45.148;39.604;2023-03-30T14:16:11;12.10;;;4.28;;
52031;SDS011;38044;45.148;39.604;2023-03-30T14:18:42;13.82;;;4.68;;
52031;SDS011;38044;45.148;39.604;2023-03-30T14:21:09;19.90;;;6.38;;
52031;SDS011;38044;45.148;39.604;2023-03-30T14:23:45;10.85;;;4.00;;
52031;SDS011;38044;45.148;39.604;2023-03-30T14:26:15;16.35;;;5.38;;
52031;SDS011;38044;45.148;39.604;2023-03-30T14:28:51;25.30;;;7.75;;
52031;SDS011;38044;45.148;39.604;2023-03-30T14:31:22;16.00;;;7.03;;
52031;SDS011;38044;45.148;39.604;2023-03-30T14:33:48;17.15;;;6.40;;
52031;SDS011;38044;45.148;39.604;2023-03-30T14:36:14;7.03;;;3.67;;
52031;SDS011;38044;45.148;39.604;2023-03-30T14:38:43;5.00;;;2.38;;
52031;SDS011;38044;45.148;39.604;2023-03-30T14:41:17;4.95;;;2.65;;
52031;SDS011;38044;45.148;39.604;2023-03-30T14:46:38;3.53;;;1.95;;
52031;SDS011;38044;45.148;39.604;2023-03-30T14:49:06;2.83;;;1.52;;
52031;SDS011;38044;45.148;39.604;2023-03-30T14:51:42;3.90;;;2.00;;
52031;SDS011;38044;45.148;39.604;2023-03-30T14:54:15;3.77;;;1.63;;
52031;SDS011;38044;45.148;39.604;2023-03-30T14:56:50;2.10;;;1.77;;
52031;SDS011;38044;45.148;39.604;2023-03-30T14:59:21;2.85;;;1.88;;
52031;SDS011;38044;45.148;39.604;2023-03-30T15:01:48;4.35;;;1.60;;
52031;SDS011;38044;45.148;39.604;2023-03-30T15:04:15;4.53;;;1.75;;
52031;SDS011;38044;45.148;39.604;2023-03-30T15:06:44;4.13;;;2.25;;
52031;SDS011;38044;45.148;39.604;2023-03-30T15:09:15;3.13;;;2.00;;
52031;SDS011;38044;45.148;39.604;2023-03-30T15:11:55;3.45;;;2.13;;
52031;SDS011;38044;45.148;39.604;2023-03-30T15:14:23;4.82;;;2.53;;
52031;SDS011;38044;45.148;39.604;2023-03-30T15:16:51;2.90;;;1.70;;
52031;SDS011;38044;45.148;39.604;2023-03-30T15:19:24;5.05;;;2.40;;
52031;SDS011;38044;45.148;39.604;2023-03-30T15:21:52;4.00;;;3.20;;
52031;SDS011;38044;45.148;39.604;2023-03-30T15:24:22;3.65;;;2.10;;
52031;SDS011;38044;45.148;39.604;2023-03-30T15:26:52;4.25;;;2.80;;
52031;SDS011;38044;45.148;39.604;2023-03-30T15:29:21;5.25;;;2.97;;
52031;SDS011;38044;45.148;39.604;2023-03-30T15:37:52;8.35;;;2.28;;
52031;SDS011;38044;45.148;39.604;2023-03-30T15:43:13;3.70;;;1.85;;
52031;SDS011;38044;45.148;39.604;2023-03-30T15:45:54;5.03;;;2.33;;
52031;SDS011;38044;45.148;39.604;2023-03-30T15:51:38;5.55;;;2.30;;
52031;SDS011;38044;45.148;39.604;2023-03-30T15:53:58;3.85;;;2.20;;
52031;SDS011;38044;45.148;39.604;2023-03-30T15:59:23;4.07;;;2.40;;
52031;SDS011;38044;45.148;39.604;2023-03-30T16:01:55;2.50;;;1.80;;
52031;SDS011;38044;45.148;39.604;2023-03-30T16:04:28;9.27;;;3.63;;
52031;SDS011;38044;45.148;39.604;2023-03-30T16:06:55;2.90;;;1.98;;
52031;SDS011;38044;45.148;39.604;2023-03-30T16:09:21;3.72;;;2.72;;
52031;SDS011;38044;45.148;39.604;2023-03-30T16:11:47;3.88;;;2.45;;
52031;SDS011;38044;45.148;39.604;2023-03-30T16:14:15;4.68;;;1.70;;
52031;SDS011;38044;45.148;39.604;2023-03-30T16:16:44;5.00;;;3.15;;
52031;SDS011;38044;45.148;39.604;2023-03-30T16:19:11;9.18;;;5.63;;
52031;SDS011;38044;45.148;39.604;2023-03-30T16:21:38;2.75;;;2.10;;
52031;SDS011;38044;45.148;39.604;2023-03-30T16:24:04;8.52;;;2.30;;
52031;SDS011;38044;45.148;39.604;2023-03-30T16:26:30;2.90;;;2.55;;
52031;SDS011;38044;45.148;39.604;2023-03-30T16:28:56;5.47;;;3.05;;
52031;SDS011;38044;45.148;39.604;2023-03-30T16:31:22;7.63;;;3.22;;
52031;SDS011;38044;45.148;39.604;2023-03-30T16:33:48;8.70;;;4.03;;
52031;SDS011;38044;45.148;39.604;2023-03-30T16:36:16;5.95;;;3.50;;
52031;SDS011;38044;45.148;39.604;2023-03-30T16:38:43;13.75;;;7.13;;
52031;SDS011;38044;45.148;39.604;2023-03-30T16:41:19;16.77;;;7.93;;
52031;SDS011;38044;45.148;39.604;2023-03-30T16:43:47;5.38;;;3.30;;
52031;SDS011;38044;45.148;39.604;2023-03-30T16:46:14;6.22;;;3.28;;
52031;SDS011;38044;45.148;39.604;2023-03-30T16:48:44;4.82;;;3.60;;
52031;SDS011;38044;45.148;39.604;2023-03-30T16:51:11;6.72;;;3.60;;
52031;SDS011;38044;45.148;39.604;2023-03-30T16:53:39;8.60;;;4.20;;
52031;SDS011;38044;45.148;39.604;2023-03-30T16:56:09;5.20;;;2.45;;
52031;SDS011;38044;45.148;39.604;2023-03-30T16:58:41;6.07;;;3.40;;
52031;SDS011;38044;45.148;39.604;2023-03-30T17:01:08;4.38;;;1.85;;
52031;SDS011;38044;45.148;39.604;2023-03-30T17:03:37;3.50;;;1.50;;
52031;SDS011;38044;45.148;39.604;2023-03-30T17:06:04;2.78;;;1.40;;